Skip Navigation LinksHome page > Weather > Current weather Skip Navigation Links

Current Weather

Heathrow, London

For information only: do not use for flight planning or navigation.
Latest weather
Observation time Saturday, September 20, 2014 4:50 PM BST
Local time Saturday, September 20, 2014 4:57 PM BST
Flight conditions Instrument Meteorological Conditions
Winds
Wind direction North-Northeast (30°)
Winds variable from 340° to 70°
Wind speed 6 mph
Visibility 3.7 mi.
Sky condition
Ceiling 800 ft. broken clouds
Cloud layer broken clouds 800 ft.
Cloud layer scattered clouds 900 ft.
Cloud layer broken clouds 1,600 ft.
Temperature 63°F
Dewpoint 59°F
Altimeter 30.03 in.Hg
Derived measurements
Relative humidity 88%
Density altitude 344 ft.
Remarks
Corrected report.
METAR COR EGLL 201550Z 03005KT 340V070 6000 BKN008 17/15 Q1017 BECMG SCT009 BKN016

Settings

Location code

InnerDrive.Weather 4.0.5372.0 Release CLR 4.0.30319.34014
Copyright ©2014 Inner Drive Technology. All rights reserved. Portions Copyright ©1986-2014 David Braverman.

Find weather

Site navigation


Skip Navigation Links

Place info

Page info

PayPal - The safer, easier way to pay online!

Return home.

Copyright ©2014 Inner Drive Technology. Purveyors of fine, hand-crafted computer software. Page printed 2014-09-20T15:57:22 UTC.